sensor_id;sensor_type;location;lat;lon;timestamp;P1;durP1;ratioP1;P2;durP2;ratioP2
72132;SDS011;60008;50.826;6.896;2022-07-18T00:00:07;4.90;;;1.63;;
72132;SDS011;60008;50.826;6.896;2022-07-18T00:02:34;4.10;;;1.70;;
72132;SDS011;60008;50.826;6.896;2022-07-18T00:05:01;4.50;;;1.67;;
72132;SDS011;60008;50.826;6.896;2022-07-18T00:07:28;5.30;;;1.70;;
72132;SDS011;60008;50.826;6.896;2022-07-18T00:09:55;4.88;;;1.52;;
72132;SDS011;60008;50.826;6.896;2022-07-18T00:12:22;5.95;;;1.88;;
72132;SDS011;60008;50.826;6.896;2022-07-18T00:14:48;4.07;;;1.23;;
72132;SDS011;60008;50.826;6.896;2022-07-18T00:17:18;4.40;;;1.50;;
72132;SDS011;60008;50.826;6.896;2022-07-18T00:19:45;5.63;;;1.65;;
72132;SDS011;60008;50.826;6.896;2022-07-18T00:22:11;3.72;;;1.20;;
72132;SDS011;60008;50.826;6.896;2022-07-18T00:24:38;5.88;;;1.60;;
72132;SDS011;60008;50.826;6.896;2022-07-18T00:27:05;5.20;;;1.40;;
72132;SDS011;60008;50.826;6.896;2022-07-18T00:29:33;4.25;;;1.80;;
72132;SDS011;60008;50.826;6.896;2022-07-18T00:32:03;3.10;;;1.40;;
72132;SDS011;60008;50.826;6.896;2022-07-18T00:34:31;5.00;;;1.73;;
72132;SDS011;60008;50.826;6.896;2022-07-18T00:36:58;2.97;;;1.30;;
72132;SDS011;60008;50.826;6.896;2022-07-18T00:39:25;3.53;;;1.50;;
72132;SDS011;60008;50.826;6.896;2022-07-18T00:41:51;3.05;;;1.63;;
72132;SDS011;60008;50.826;6.896;2022-07-18T00:44:19;4.10;;;1.58;;
72132;SDS011;60008;50.826;6.896;2022-07-18T00:46:49;2.65;;;1.38;;
72132;SDS011;60008;50.826;6.896;2022-07-18T00:49:16;6.35;;;1.83;;
72132;SDS011;60008;50.826;6.896;2022-07-18T00:51:43;3.13;;;1.53;;
72132;SDS011;60008;50.826;6.896;2022-07-18T00:54:11;4.32;;;1.77;;
72132;SDS011;60008;50.826;6.896;2022-07-18T00:56:37;3.67;;;1.60;;
72132;SDS011;60008;50.826;6.896;2022-07-18T00:59:05;3.75;;;1.50;;
72132;SDS011;60008;50.826;6.896;2022-07-18T01:01:32;3.47;;;1.50;;
72132;SDS011;60008;50.826;6.896;2022-07-18T01:04:19;4.60;;;2.00;;
72132;SDS011;60008;50.826;6.896;2022-07-18T01:06:48;4.03;;;1.80;;
72132;SDS011;60008;50.826;6.896;2022-07-18T01:09:16;3.13;;;1.40;;
72132;SDS011;60008;50.826;6.896;2022-07-18T01:11:44;3.00;;;1.70;;
72132;SDS011;60008;50.826;6.896;2022-07-18T01:14:12;4.22;;;1.60;;
72132;SDS011;60008;50.826;6.896;2022-07-18T01:16:39;3.53;;;1.63;;
72132;SDS011;60008;50.826;6.896;2022-07-18T01:19:06;2.83;;;1.40;;
72132;SDS011;60008;50.826;6.896;2022-07-18T01:21:33;4.35;;;1.70;;
72132;SDS011;60008;50.826;6.896;2022-07-18T01:23:59;7.93;;;2.20;;
72132;SDS011;60008;50.826;6.896;2022-07-18T01:26:26;5.40;;;1.50;;
72132;SDS011;60008;50.826;6.896;2022-07-18T01:28:53;3.67;;;1.70;;
72132;SDS011;60008;50.826;6.896;2022-07-18T01:31:20;3.83;;;1.70;;
72132;SDS011;60008;50.826;6.896;2022-07-18T01:33:47;4.32;;;1.65;;
72132;SDS011;60008;50.826;6.896;2022-07-18T01:36:13;3.22;;;1.48;;
72132;SDS011;60008;50.826;6.896;2022-07-18T01:38:40;6.50;;;1.73;;
72132;SDS011;60008;50.826;6.896;2022-07-18T01:41:06;5.07;;;1.60;;
72132;SDS011;60008;50.826;6.896;2022-07-18T01:43:33;3.35;;;1.63;;
72132;SDS011;60008;50.826;6.896;2022-07-18T01:46:00;5.70;;;1.95;;
72132;SDS011;60008;50.826;6.896;2022-07-18T01:48:27;3.78;;;1.60;;
72132;SDS011;60008;50.826;6.896;2022-07-18T01:50:54;5.15;;;1.70;;
72132;SDS011;60008;50.826;6.896;2022-07-18T01:53:21;5.20;;;1.87;;
72132;SDS011;60008;50.826;6.896;2022-07-18T01:55:47;3.88;;;1.73;;
72132;SDS011;60008;50.826;6.896;2022-07-18T01:58:14;2.75;;;1.50;;
72132;SDS011;60008;50.826;6.896;2022-07-18T02:00:41;5.22;;;1.75;;
72132;SDS011;60008;50.826;6.896;2022-07-18T02:03:07;3.47;;;1.73;;
72132;SDS011;60008;50.826;6.896;2022-07-18T02:05:34;4.40;;;2.03;;
72132;SDS011;60008;50.826;6.896;2022-07-18T02:08:01;5.38;;;2.28;;
72132;SDS011;60008;50.826;6.896;2022-07-18T02:10:28;4.95;;;1.80;;
72132;SDS011;60008;50.826;6.896;2022-07-18T02:12:54;5.47;;;2.20;;
72132;SDS011;60008;50.826;6.896;2022-07-18T02:15:21;5.53;;;2.00;;
72132;SDS011;60008;50.826;6.896;2022-07-18T02:17:48;4.50;;;1.93;;
72132;SDS011;60008;50.826;6.896;2022-07-18T02:20:15;4.05;;;1.70;;
72132;SDS011;60008;50.826;6.896;2022-07-18T02:22:42;4.93;;;1.70;;
72132;SDS011;60008;50.826;6.896;2022-07-18T02:25:09;7.13;;;1.70;;
72132;SDS011;60008;50.826;6.896;2022-07-18T02:27:36;3.28;;;1.73;;
72132;SDS011;60008;50.826;6.896;2022-07-18T02:30:04;3.87;;;1.93;;
72132;SDS011;60008;50.826;6.896;2022-07-18T02:32:32;4.05;;;1.77;;
72132;SDS011;60008;50.826;6.896;2022-07-18T02:35:01;6.30;;;2.00;;
72132;SDS011;60008;50.826;6.896;2022-07-18T02:37:27;6.53;;;1.95;;
72132;SDS011;60008;50.826;6.896;2022-07-18T02:39:54;4.85;;;1.70;;
72132;SDS011;60008;50.826;6.896;2022-07-18T02:42:20;6.33;;;1.83;;
72132;SDS011;60008;50.826;6.896;2022-07-18T02:44:47;3.75;;;1.83;;
72132;SDS011;60008;50.826;6.896;2022-07-18T02:47:14;3.88;;;1.80;;
72132;SDS011;60008;50.826;6.896;2022-07-18T02:49:40;3.85;;;1.90;;
72132;SDS011;60008;50.826;6.896;2022-07-18T02:52:07;2.72;;;1.55;;
72132;SDS011;60008;50.826;6.896;2022-07-18T02:54:35;6.33;;;1.90;;
72132;SDS011;60008;50.826;6.896;2022-07-18T02:57:03;3.00;;;1.60;;
72132;SDS011;60008;50.826;6.896;2022-07-18T02:59:30;4.90;;;2.05;;
72132;SDS011;60008;50.826;6.896;2022-07-18T03:01:57;4.80;;;1.75;;
72132;SDS011;60008;50.826;6.896;2022-07-18T03:04:24;4.72;;;1.77;;
72132;SDS011;60008;50.826;6.896;2022-07-18T03:06:51;4.33;;;1.90;;
72132;SDS011;60008;50.826;6.896;2022-07-18T03:09:18;3.83;;;1.67;;
72132;SDS011;60008;50.826;6.896;2022-07-18T03:11:45;5.35;;;1.95;;
72132;SDS011;60008;50.826;6.896;2022-07-18T03:14:12;3.88;;;1.75;;
72132;SDS011;60008;50.826;6.896;2022-07-18T03:16:39;6.28;;;2.17;;
72132;SDS011;60008;50.826;6.896;2022-07-18T03:19:05;6.93;;;2.33;;
72132;SDS011;60008;50.826;6.896;2022-07-18T03:21:32;4.20;;;1.90;;
72132;SDS011;60008;50.826;6.896;2022-07-18T03:23:58;7.13;;;2.40;;
72132;SDS011;60008;50.826;6.896;2022-07-18T03:26:25;6.18;;;2.13;;
72132;SDS011;60008;50.826;6.896;2022-07-18T03:28:52;3.92;;;1.77;;
72132;SDS011;60008;50.826;6.896;2022-07-18T03:31:18;4.63;;;1.97;;
72132;SDS011;60008;50.826;6.896;2022-07-18T03:33:45;4.68;;;2.22;;
72132;SDS011;60008;50.826;6.896;2022-07-18T03:36:12;3.80;;;1.98;;
72132;SDS011;60008;50.826;6.896;2022-07-18T03:38:38;5.72;;;2.10;;
72132;SDS011;60008;50.826;6.896;2022-07-18T03:41:10;3.88;;;2.03;;
72132;SDS011;60008;50.826;6.896;2022-07-18T03:43:37;5.03;;;1.90;;
72132;SDS011;60008;50.826;6.896;2022-07-18T03:46:05;4.97;;;2.10;;
72132;SDS011;60008;50.826;6.896;2022-07-18T03:48:32;5.88;;;2.13;;
72132;SDS011;60008;50.826;6.896;2022-07-18T03:50:59;3.85;;;2.10;;
72132;SDS011;60008;50.826;6.896;2022-07-18T03:53:26;5.10;;;2.20;;
72132;SDS011;60008;50.826;6.896;2022-07-18T03:55:53;5.80;;;2.00;;
72132;SDS011;60008;50.826;6.896;2022-07-18T03:58:19;5.03;;;2.00;;
72132;SDS011;60008;50.826;6.896;2022-07-18T04:00:46;5.88;;;2.17;;
72132;SDS011;60008;50.826;6.896;2022-07-18T04:03:13;5.47;;;2.20;;
72132;SDS011;60008;50.826;6.896;2022-07-18T04:05:41;6.35;;;2.00;;
72132;SDS011;60008;50.826;6.896;2022-07-18T04:08:07;2.93;;;1.80;;
72132;SDS011;60008;50.826;6.896;2022-07-18T04:10:34;5.20;;;1.92;;
72132;SDS011;60008;50.826;6.896;2022-07-18T04:13:00;5.50;;;2.20;;
72132;SDS011;60008;50.826;6.896;2022-07-18T04:15:27;6.72;;;2.17;;
72132;SDS011;60008;50.826;6.896;2022-07-18T04:17:54;3.83;;;2.08;;
72132;SDS011;60008;50.826;6.896;2022-07-18T04:20:20;6.63;;;2.23;;
72132;SDS011;60008;50.826;6.896;2022-07-18T04:22:57;5.88;;;2.72;;
72132;SDS011;60008;50.826;6.896;2022-07-18T04:25:27;4.20;;;2.20;;
72132;SDS011;60008;50.826;6.896;2022-07-18T04:27:55;6.65;;;2.10;;
72132;SDS011;60008;50.826;6.896;2022-07-18T04:30:23;5.93;;;2.28;;
72132;SDS011;60008;50.826;6.896;2022-07-18T04:32:51;3.73;;;2.10;;
72132;SDS011;60008;50.826;6.896;2022-07-18T04:35:19;4.50;;;2.22;;
72132;SDS011;60008;50.826;6.896;2022-07-18T04:37:46;5.75;;;2.03;;
72132;SDS011;60008;50.826;6.896;2022-07-18T04:40:14;4.30;;;2.20;;
72132;SDS011;60008;50.826;6.896;2022-07-18T04:42:42;5.28;;;2.03;;
72132;SDS011;60008;50.826;6.896;2022-07-18T04:45:09;4.00;;;2.07;;
72132;SDS011;60008;50.826;6.896;2022-07-18T04:47:36;7.57;;;2.10;;
72132;SDS011;60008;50.826;6.896;2022-07-18T04:50:03;4.32;;;1.85;;
72132;SDS011;60008;50.826;6.896;2022-07-18T04:52:40;4.68;;;1.90;;
72132;SDS011;60008;50.826;6.896;2022-07-18T04:55:08;7.60;;;1.80;;
72132;SDS011;60008;50.826;6.896;2022-07-18T04:57:36;8.30;;;1.80;;
72132;SDS011;60008;50.826;6.896;2022-07-18T05:00:04;4.57;;;2.00;;
72132;SDS011;60008;50.826;6.896;2022-07-18T05:02:33;4.15;;;1.50;;
72132;SDS011;60008;50.826;6.896;2022-07-18T05:04:59;5.47;;;2.05;;
72132;SDS011;60008;50.826;6.896;2022-07-18T05:07:26;4.53;;;2.00;;
72132;SDS011;60008;50.826;6.896;2022-07-18T05:09:53;5.93;;;1.73;;
72132;SDS011;60008;50.826;6.896;2022-07-18T05:12:19;3.88;;;1.80;;
72132;SDS011;60008;50.826;6.896;2022-07-18T05:14:49;4.43;;;1.80;;
72132;SDS011;60008;50.826;6.896;2022-07-18T05:17:27;3.78;;;1.70;;
72132;SDS011;60008;50.826;6.896;2022-07-18T05:19:54;6.00;;;1.80;;
72132;SDS011;60008;50.826;6.896;2022-07-18T05:22:21;9.70;;;2.17;;
72132;SDS011;60008;50.826;6.896;2022-07-18T05:24:47;8.45;;;2.03;;
72132;SDS011;60008;50.826;6.896;2022-07-18T05:27:14;8.23;;;2.00;;
72132;SDS011;60008;50.826;6.896;2022-07-18T05:29:41;4.70;;;1.70;;
72132;SDS011;60008;50.826;6.896;2022-07-18T05:32:07;9.93;;;1.90;;
72132;SDS011;60008;50.826;6.896;2022-07-18T05:34:34;6.37;;;1.70;;
72132;SDS011;60008;50.826;6.896;2022-07-18T05:37:01;12.63;;;2.00;;
72132;SDS011;60008;50.826;6.896;2022-07-18T05:39:27;4.68;;;2.13;;
72132;SDS011;60008;50.826;6.896;2022-07-18T05:41:54;7.72;;;1.95;;
72132;SDS011;60008;50.826;6.896;2022-07-18T05:44:20;5.07;;;1.73;;
72132;SDS011;60008;50.826;6.896;2022-07-18T05:46:47;6.57;;;2.17;;
72132;SDS011;60008;50.826;6.896;2022-07-18T05:49:14;6.22;;;1.80;;
72132;SDS011;60008;50.826;6.896;2022-07-18T05:51:41;6.72;;;1.80;;
72132;SDS011;60008;50.826;6.896;2022-07-18T05:54:08;3.45;;;1.83;;
72132;SDS011;60008;50.826;6.896;2022-07-18T05:56:34;8.05;;;2.10;;
72132;SDS011;60008;50.826;6.896;2022-07-18T05:59:02;5.73;;;1.80;;
72132;SDS011;60008;50.826;6.896;2022-07-18T06:01:29;4.20;;;1.83;;
72132;SDS011;60008;50.826;6.896;2022-07-18T06:03:56;3.92;;;1.90;;
72132;SDS011;60008;50.826;6.896;2022-07-18T06:06:22;8.55;;;1.90;;
72132;SDS011;60008;50.826;6.896;2022-07-18T06:08:50;6.97;;;2.15;;
72132;SDS011;60008;50.826;6.896;2022-07-18T06:11:17;8.10;;;2.30;;
72132;SDS011;60008;50.826;6.896;2022-07-18T06:13:43;4.45;;;2.00;;
72132;SDS011;60008;50.826;6.896;2022-07-18T06:16:11;5.03;;;2.05;;
72132;SDS011;60008;50.826;6.896;2022-07-18T06:18:38;3.97;;;1.95;;
72132;SDS011;60008;50.826;6.896;2022-07-18T06:21:04;8.23;;;2.25;;
72132;SDS011;60008;50.826;6.896;2022-07-18T06:23:31;4.10;;;2.13;;
72132;SDS011;60008;50.826;6.896;2022-07-18T06:25:58;6.20;;;2.00;;
72132;SDS011;60008;50.826;6.896;2022-07-18T06:28:25;4.40;;;1.80;;
72132;SDS011;60008;50.826;6.896;2022-07-18T06:30:52;8.23;;;2.30;;
72132;SDS011;60008;50.826;6.896;2022-07-18T06:33:19;5.63;;;2.00;;
72132;SDS011;60008;50.826;6.896;2022-07-18T06:35:46;7.50;;;1.90;;
72132;SDS011;60008;50.826;6.896;2022-07-18T06:38:14;4.97;;;1.90;;
72132;SDS011;60008;50.826;6.896;2022-07-18T06:40:41;9.68;;;1.77;;
72132;SDS011;60008;50.826;6.896;2022-07-18T06:43:08;3.85;;;1.58;;
72132;SDS011;60008;50.826;6.896;2022-07-18T06:45:35;5.63;;;1.98;;
72132;SDS011;60008;50.826;6.896;2022-07-18T06:48:02;4.43;;;1.70;;
72132;SDS011;60008;50.826;6.896;2022-07-18T06:50:28;6.40;;;1.60;;
72132;SDS011;60008;50.826;6.896;2022-07-18T06:52:55;6.80;;;1.70;;
72132;SDS011;60008;50.826;6.896;2022-07-18T06:55:22;5.43;;;1.85;;
72132;SDS011;60008;50.826;6.896;2022-07-18T06:57:49;17.05;;;1.80;;
72132;SDS011;60008;50.826;6.896;2022-07-18T07:00:15;5.73;;;1.60;;
72132;SDS011;60008;50.826;6.896;2022-07-18T07:02:46;5.28;;;1.80;;
72132;SDS011;60008;50.826;6.896;2022-07-18T07:05:15;5.30;;;1.75;;
72132;SDS011;60008;50.826;6.896;2022-07-18T07:07:43;6.75;;;1.90;;
72132;SDS011;60008;50.826;6.896;2022-07-18T07:10:14;6.50;;;1.80;;
72132;SDS011;60008;50.826;6.896;2022-07-18T07:12:48;3.33;;;1.60;;
72132;SDS011;60008;50.826;6.896;2022-07-18T07:15:20;6.70;;;1.90;;
72132;SDS011;60008;50.826;6.896;2022-07-18T07:17:49;5.53;;;1.45;;
72132;SDS011;60008;50.826;6.896;2022-07-18T07:20:16;6.80;;;1.80;;
72132;SDS011;60008;50.826;6.896;2022-07-18T07:22:46;5.97;;;1.90;;
72132;SDS011;60008;50.826;6.896;2022-07-18T07:25:15;6.00;;;2.23;;
72132;SDS011;60008;50.826;6.896;2022-07-18T07:27:43;7.28;;;1.70;;
72132;SDS011;60008;50.826;6.896;2022-07-18T07:30:10;10.57;;;1.75;;
72132;SDS011;60008;50.826;6.896;2022-07-18T07:32:39;9.45;;;1.77;;
72132;SDS011;60008;50.826;6.896;2022-07-18T07:35:08;11.05;;;1.90;;
72132;SDS011;60008;50.826;6.896;2022-07-18T07:37:42;4.57;;;1.80;;
72132;SDS011;60008;50.826;6.896;2022-07-18T07:40:10;3.90;;;1.50;;
72132;SDS011;60008;50.826;6.896;2022-07-18T07:42:38;5.30;;;1.83;;
72132;SDS011;60008;50.826;6.896;2022-07-18T07:45:04;5.25;;;1.77;;
72132;SDS011;60008;50.826;6.896;2022-07-18T07:47:32;4.07;;;1.60;;
72132;SDS011;60008;50.826;6.896;2022-07-18T07:49:58;12.33;;;2.30;;
72132;SDS011;60008;50.826;6.896;2022-07-18T07:52:25;8.38;;;1.88;;
72132;SDS011;60008;50.826;6.896;2022-07-18T07:54:54;5.57;;;1.90;;
72132;SDS011;60008;50.826;6.896;2022-07-18T07:57:20;7.07;;;2.20;;
72132;SDS011;60008;50.826;6.896;2022-07-18T07:59:47;4.45;;;2.22;;
72132;SDS011;60008;50.826;6.896;2022-07-18T08:02:14;11.20;;;2.37;;
72132;SDS011;60008;50.826;6.896;2022-07-18T08:04:41;6.40;;;2.30;;
72132;SDS011;60008;50.826;6.896;2022-07-18T08:07:08;6.25;;;1.85;;
72132;SDS011;60008;50.826;6.896;2022-07-18T08:09:35;8.75;;;2.35;;
72132;SDS011;60008;50.826;6.896;2022-07-18T08:12:02;3.38;;;2.28;;
72132;SDS011;60008;50.826;6.896;2022-07-18T08:14:29;4.03;;;2.17;;
72132;SDS011;60008;50.826;6.896;2022-07-18T08:16:55;10.65;;;2.58;;
72132;SDS011;60008;50.826;6.896;2022-07-18T08:19:22;8.85;;;2.50;;
72132;SDS011;60008;50.826;6.896;2022-07-18T08:21:49;7.00;;;2.33;;
72132;SDS011;60008;50.826;6.896;2022-07-18T08:24:15;7.90;;;3.00;;
72132;SDS011;60008;50.826;6.896;2022-07-18T08:26:42;8.87;;;2.73;;
72132;SDS011;60008;50.826;6.896;2022-07-18T08:29:08;7.20;;;2.70;;
72132;SDS011;60008;50.826;6.896;2022-07-18T08:31:35;4.47;;;2.55;;
72132;SDS011;60008;50.826;6.896;2022-07-18T08:34:03;7.47;;;3.28;;
72132;SDS011;60008;50.826;6.896;2022-07-18T08:36:29;10.30;;;3.15;;
72132;SDS011;60008;50.826;6.896;2022-07-18T08:39:04;4.68;;;2.90;;
72132;SDS011;60008;50.826;6.896;2022-07-18T08:41:30;9.03;;;3.10;;
72132;SDS011;60008;50.826;6.896;2022-07-18T08:43:58;6.67;;;3.27;;
72132;SDS011;60008;50.826;6.896;2022-07-18T08:46:24;5.22;;;3.10;;
72132;SDS011;60008;50.826;6.896;2022-07-18T08:48:52;5.20;;;3.33;;
72132;SDS011;60008;50.826;6.896;2022-07-18T08:51:21;6.20;;;3.20;;
72132;SDS011;60008;50.826;6.896;2022-07-18T08:53:49;5.38;;;3.55;;
72132;SDS011;60008;50.826;6.896;2022-07-18T08:56:18;6.33;;;3.73;;
72132;SDS011;60008;50.826;6.896;2022-07-18T08:58:44;5.63;;;3.20;;
72132;SDS011;60008;50.826;6.896;2022-07-18T09:01:12;6.72;;;2.83;;
72132;SDS011;60008;50.826;6.896;2022-07-18T09:03:39;8.93;;;3.17;;
72132;SDS011;60008;50.826;6.896;2022-07-18T09:06:07;7.82;;;3.28;;
72132;SDS011;60008;50.826;6.896;2022-07-18T09:09:12;5.65;;;3.65;;
72132;SDS011;60008;50.826;6.896;2022-07-18T09:11:31;3.90;;;2.80;;
72132;SDS011;60008;50.826;6.896;2022-07-18T09:17:18;7.00;;;3.00;;
72132;SDS011;60008;50.826;6.896;2022-07-18T09:19:56;5.78;;;3.17;;
72132;SDS011;60008;50.826;6.896;2022-07-18T09:22:23;6.07;;;3.33;;
72132;SDS011;60008;50.826;6.896;2022-07-18T09:25:13;5.33;;;3.83;;
72132;SDS011;60008;50.826;6.896;2022-07-18T09:27:46;7.27;;;3.53;;
72132;SDS011;60008;50.826;6.896;2022-07-18T09:30:16;8.73;;;3.67;;
72132;SDS011;60008;50.826;6.896;2022-07-18T09:35:31;5.78;;;3.05;;
72132;SDS011;60008;50.826;6.896;2022-07-18T09:38:22;7.05;;;2.92;;
72132;SDS011;60008;50.826;6.896;2022-07-18T09:40:55;4.00;;;2.80;;
72132;SDS011;60008;50.826;6.896;2022-07-18T09:43:24;5.07;;;3.10;;
72132;SDS011;60008;50.826;6.896;2022-07-18T09:45:54;4.90;;;3.03;;
72132;SDS011;60008;50.826;6.896;2022-07-18T09:48:23;6.43;;;3.08;;
72132;SDS011;60008;50.826;6.896;2022-07-18T09:53:19;4.90;;;3.27;;
72132;SDS011;60008;50.826;6.896;2022-07-18T09:56:01;5.03;;;3.15;;
72132;SDS011;60008;50.826;6.896;2022-07-18T09:58:36;8.20;;;3.53;;
72132;SDS011;60008;50.826;6.896;2022-07-18T10:01:22;4.95;;;3.53;;
72132;SDS011;60008;50.826;6.896;2022-07-18T10:03:49;6.40;;;3.47;;
72132;SDS011;60008;50.826;6.896;2022-07-18T10:06:16;5.67;;;3.73;;
72132;SDS011;60008;50.826;6.896;2022-07-18T10:08:47;4.95;;;3.40;;
72132;SDS011;60008;50.826;6.896;2022-07-18T10:11:14;5.35;;;3.17;;
72132;SDS011;60008;50.826;6.896;2022-07-18T10:13:41;8.43;;;3.70;;
72132;SDS011;60008;50.826;6.896;2022-07-18T10:16:07;5.90;;;3.10;;
72132;SDS011;60008;50.826;6.896;2022-07-18T10:18:35;4.53;;;3.77;;
72132;SDS011;60008;50.826;6.896;2022-07-18T10:21:08;4.43;;;3.28;;
72132;SDS011;60008;50.826;6.896;2022-07-18T10:23:40;6.30;;;3.10;;
72132;SDS011;60008;50.826;6.896;2022-07-18T10:34:09;4.68;;;3.05;;
72132;SDS011;60008;50.826;6.896;2022-07-18T10:36:38;3.38;;;3.03;;
72132;SDS011;60008;50.826;6.896;2022-07-18T10:39:18;5.25;;;3.30;;
72132;SDS011;60008;50.826;6.896;2022-07-18T10:50:01;6.40;;;3.10;;
72132;SDS011;60008;50.826;6.896;2022-07-18T11:00:16;7.68;;;2.67;;
72132;SDS011;60008;50.826;6.896;2022-07-18T11:15:55;3.97;;;2.42;;
72132;SDS011;60008;50.826;6.896;2022-07-18T11:23:48;6.00;;;3.20;;
72132;SDS011;60008;50.826;6.896;2022-07-18T11:26:20;4.20;;;2.80;;
72132;SDS011;60008;50.826;6.896;2022-07-18T11:29:01;4.10;;;2.88;;
72132;SDS011;60008;50.826;6.896;2022-07-18T11:34:23;5.50;;;2.13;;
72132;SDS011;60008;50.826;6.896;2022-07-18T11:37:08;8.07;;;3.25;;
72132;SDS011;60008;50.826;6.896;2022-07-18T11:39:39;4.77;;;3.03;;
72132;SDS011;60008;50.826;6.896;2022-07-18T11:42:06;5.45;;;2.53;;
72132;SDS011;60008;50.826;6.896;2022-07-18T11:44:32;5.97;;;2.50;;
72132;SDS011;60008;50.826;6.896;2022-07-18T11:47:03;4.10;;;2.97;;
72132;SDS011;60008;50.826;6.896;2022-07-18T11:49:30;5.78;;;2.80;;
72132;SDS011;60008;50.826;6.896;2022-07-18T11:51:57;4.47;;;2.70;;
72132;SDS011;60008;50.826;6.896;2022-07-18T11:54:23;3.60;;;2.17;;
72132;SDS011;60008;50.826;6.896;2022-07-18T11:56:52;4.28;;;1.90;;
72132;SDS011;60008;50.826;6.896;2022-07-18T11:59:20;4.63;;;1.90;;
72132;SDS011;60008;50.826;6.896;2022-07-18T12:01:47;4.95;;;2.28;;
72132;SDS011;60008;50.826;6.896;2022-07-18T12:04:22;4.80;;;2.00;;
72132;SDS011;60008;50.826;6.896;2022-07-18T12:09:44;9.48;;;3.28;;
72132;SDS011;60008;50.826;6.896;2022-07-18T12:12:12;4.72;;;1.80;;
72132;SDS011;60008;50.826;6.896;2022-07-18T12:14:56;6.45;;;2.08;;
72132;SDS011;60008;50.826;6.896;2022-07-18T12:17:25;11.13;;;2.40;;
72132;SDS011;60008;50.826;6.896;2022-07-18T12:19:59;9.00;;;2.03;;
72132;SDS011;60008;50.826;6.896;2022-07-18T12:22:35;2.88;;;2.20;;
72132;SDS011;60008;50.826;6.896;2022-07-18T12:25:02;3.28;;;2.25;;
72132;SDS011;60008;50.826;6.896;2022-07-18T12:35:24;6.55;;;1.90;;
72132;SDS011;60008;50.826;6.896;2022-07-18T12:40:37;4.75;;;2.05;;
72132;SDS011;60008;50.826;6.896;2022-07-18T12:43:07;8.03;;;1.77;;
72132;SDS011;60008;50.826;6.896;2022-07-18T12:45:36;5.38;;;1.95;;
72132;SDS011;60008;50.826;6.896;2022-07-18T12:48:05;4.88;;;2.25;;
72132;SDS011;60008;50.826;6.896;2022-07-18T12:50:33;5.00;;;2.00;;
72132;SDS011;60008;50.826;6.896;2022-07-18T12:53:01;3.40;;;1.95;;
72132;SDS011;60008;50.826;6.896;2022-07-18T12:55:27;7.27;;;1.67;;
72132;SDS011;60008;50.826;6.896;2022-07-18T12:57:58;5.40;;;1.77;;
72132;SDS011;60008;50.826;6.896;2022-07-18T13:00:26;3.97;;;2.00;;
72132;SDS011;60008;50.826;6.896;2022-07-18T13:02:53;5.65;;;2.00;;
72132;SDS011;60008;50.826;6.896;2022-07-18T13:05:22;3.75;;;2.08;;
72132;SDS011;60008;50.826;6.896;2022-07-18T13:07:49;6.90;;;2.00;;
72132;SDS011;60008;50.826;6.896;2022-07-18T13:10:16;3.03;;;1.93;;
72132;SDS011;60008;50.826;6.896;2022-07-18T13:12:42;4.28;;;2.03;;
72132;SDS011;60008;50.826;6.896;2022-07-18T13:15:09;3.35;;;2.00;;
72132;SDS011;60008;50.826;6.896;2022-07-18T13:17:36;4.63;;;1.67;;
72132;SDS011;60008;50.826;6.896;2022-07-18T13:20:03;4.75;;;2.05;;
72132;SDS011;60008;50.826;6.896;2022-07-18T13:22:30;11.83;;;1.80;;
72132;SDS011;60008;50.826;6.896;2022-07-18T13:25:07;3.47;;;1.80;;
72132;SDS011;60008;50.826;6.896;2022-07-18T13:27:35;3.85;;;1.60;;
72132;SDS011;60008;50.826;6.896;2022-07-18T13:30:03;4.40;;;1.95;;
72132;SDS011;60008;50.826;6.896;2022-07-18T13:32:31;3.20;;;1.77;;
72132;SDS011;60008;50.826;6.896;2022-07-18T13:34:57;3.47;;;1.87;;
72132;SDS011;60008;50.826;6.896;2022-07-18T13:37:24;4.22;;;1.70;;
72132;SDS011;60008;50.826;6.896;2022-07-18T13:39:51;7.45;;;2.55;;
72132;SDS011;60008;50.826;6.896;2022-07-18T13:42:17;7.05;;;1.95;;
72132;SDS011;60008;50.826;6.896;2022-07-18T13:44:44;4.25;;;1.95;;
72132;SDS011;60008;50.826;6.896;2022-07-18T13:47:14;5.90;;;1.50;;
72132;SDS011;60008;50.826;6.896;2022-07-18T13:49:41;3.50;;;1.70;;
72132;SDS011;60008;50.826;6.896;2022-07-18T13:52:08;3.85;;;1.75;;
72132;SDS011;60008;50.826;6.896;2022-07-18T13:54:36;5.30;;;2.00;;
72132;SDS011;60008;50.826;6.896;2022-07-18T13:57:03;5.13;;;1.90;;
72132;SDS011;60008;50.826;6.896;2022-07-18T13:59:30;3.97;;;2.08;;
72132;SDS011;60008;50.826;6.896;2022-07-18T14:01:56;3.93;;;1.50;;
72132;SDS011;60008;50.826;6.896;2022-07-18T14:04:24;5.63;;;1.90;;
72132;SDS011;60008;50.826;6.896;2022-07-18T14:07:00;3.40;;;1.85;;
72132;SDS011;60008;50.826;6.896;2022-07-18T14:09:28;4.72;;;2.10;;
72132;SDS011;60008;50.826;6.896;2022-07-18T14:11:54;5.70;;;1.98;;
72132;SDS011;60008;50.826;6.896;2022-07-18T14:14:22;3.42;;;1.98;;
72132;SDS011;60008;50.826;6.896;2022-07-18T14:16:50;3.83;;;1.80;;
72132;SDS011;60008;50.826;6.896;2022-07-18T14:19:17;3.78;;;1.85;;
72132;SDS011;60008;50.826;6.896;2022-07-18T14:21:46;5.55;;;2.15;;
72132;SDS011;60008;50.826;6.896;2022-07-18T14:24:13;10.48;;;1.90;;
72132;SDS011;60008;50.826;6.896;2022-07-18T14:26:40;4.88;;;2.00;;
72132;SDS011;60008;50.826;6.896;2022-07-18T14:29:06;4.90;;;2.40;;
72132;SDS011;60008;50.826;6.896;2022-07-18T14:31:33;7.30;;;2.20;;
72132;SDS011;60008;50.826;6.896;2022-07-18T14:34:01;4.97;;;1.95;;
72132;SDS011;60008;50.826;6.896;2022-07-18T14:36:27;9.90;;;2.10;;
72132;SDS011;60008;50.826;6.896;2022-07-18T14:38:54;3.55;;;1.58;;
72132;SDS011;60008;50.826;6.896;2022-07-18T14:41:20;4.50;;;2.10;;
72132;SDS011;60008;50.826;6.896;2022-07-18T14:43:49;6.03;;;2.20;;
72132;SDS011;60008;50.826;6.896;2022-07-18T14:46:15;3.03;;;1.70;;
72132;SDS011;60008;50.826;6.896;2022-07-18T14:48:43;4.63;;;2.30;;
72132;SDS011;60008;50.826;6.896;2022-07-18T14:51:10;16.35;;;1.58;;
72132;SDS011;60008;50.826;6.896;2022-07-18T14:53:37;7.68;;;2.55;;
72132;SDS011;60008;50.826;6.896;2022-07-18T14:56:03;4.53;;;1.90;;
72132;SDS011;60008;50.826;6.896;2022-07-18T14:58:30;7.27;;;2.07;;
72132;SDS011;60008;50.826;6.896;2022-07-18T15:00:56;3.10;;;1.58;;
72132;SDS011;60008;50.826;6.896;2022-07-18T15:03:23;3.65;;;2.35;;
72132;SDS011;60008;50.826;6.896;2022-07-18T15:06:10;5.70;;;1.80;;
72132;SDS011;60008;50.826;6.896;2022-07-18T15:08:36;5.25;;;2.08;;
72132;SDS011;60008;50.826;6.896;2022-07-18T15:11:03;5.67;;;2.63;;
72132;SDS011;60008;50.826;6.896;2022-07-18T15:13:30;6.00;;;1.87;;
72132;SDS011;60008;50.826;6.896;2022-07-18T15:15:56;5.05;;;1.67;;
72132;SDS011;60008;50.826;6.896;2022-07-18T15:18:23;5.32;;;1.65;;
72132;SDS011;60008;50.826;6.896;2022-07-18T15:20:50;6.70;;;2.42;;
72132;SDS011;60008;50.826;6.896;2022-07-18T15:23:16;6.03;;;1.80;;
72132;SDS011;60008;50.826;6.896;2022-07-18T15:25:43;5.10;;;1.97;;
72132;SDS011;60008;50.826;6.896;2022-07-18T15:28:10;8.00;;;2.45;;
72132;SDS011;60008;50.826;6.896;2022-07-18T15:30:36;3.08;;;1.58;;
72132;SDS011;60008;50.826;6.896;2022-07-18T15:33:12;2.60;;;1.83;;
72132;SDS011;60008;50.826;6.896;2022-07-18T15:35:39;9.68;;;1.92;;
72132;SDS011;60008;50.826;6.896;2022-07-18T15:38:06;5.03;;;1.90;;
72132;SDS011;60008;50.826;6.896;2022-07-18T15:40:32;2.88;;;1.85;;
72132;SDS011;60008;50.826;6.896;2022-07-18T15:42:59;6.47;;;2.28;;
72132;SDS011;60008;50.826;6.896;2022-07-18T15:45:26;3.53;;;1.88;;
72132;SDS011;60008;50.826;6.896;2022-07-18T15:47:53;7.53;;;1.92;;
72132;SDS011;60008;50.826;6.896;2022-07-18T15:50:20;7.30;;;2.00;;
72132;SDS011;60008;50.826;6.896;2022-07-18T15:52:47;9.40;;;2.10;;
72132;SDS011;60008;50.826;6.896;2022-07-18T15:55:14;5.68;;;1.50;;
72132;SDS011;60008;50.826;6.896;2022-07-18T15:57:40;8.05;;;2.25;;
72132;SDS011;60008;50.826;6.896;2022-07-18T16:00:07;5.10;;;1.90;;